Time;durP1;ratioP1;P1;durP2;ratioP2;P2;SDS_P1;SDS_P2;PMS_P1;PMS_P2;Temp;Humidity;BMP_temperature;BMP_pressure;BME280_temperature;BME280_humidity;BME280_pressure;Samples;Min_cycle;Max_cycle;Signal;HPM_P1;HPM_P2
2022/09/03 00:00:22;;;;;;;3.28;0.88;;;17.80;67.60;;;;;;5103901;27;39256;-59
2022/09/03 00:02:58;;;;;;;3.42;0.80;;;17.80;67.90;;;;;;5105411;27;38428;-60
2022/09/03 00:05:35;;;;;;;5.43;1.10;;;17.80;68.20;;;;;;5105368;27;37493;-59
2022/09/03 00:08:06;;;;;;;4.63;0.90;;;17.80;68.30;;;;;;5104045;27;37364;-59
2022/09/03 00:10:41;;;;;;;6.13;1.25;;;17.70;68.40;;;;;;5106722;27;38046;-60
2022/09/03 00:13:10;;;;;;;5.25;0.93;;;17.80;68.50;;;;;;5106153;27;37154;-59
2022/09/03 00:15:40;;;;;;;3.78;0.90;;;17.70;68.50;;;;;;5105444;27;38781;-59
2022/09/03 00:18:13;;;;;;;2.00;0.90;;;17.70;68.70;;;;;;5105458;27;37557;-59
2022/09/03 00:20:44;;;;;;;2.47;0.70;;;17.70;68.80;;;;;;5104824;27;38113;-61
2022/09/03 00:23:18;;;;;;;6.03;1.00;;;17.70;68.80;;;;;;5104692;27;38268;-59
2022/09/03 00:25:50;;;;;;;3.75;0.88;;;17.80;68.90;;;;;;5105458;27;37650;-59
2022/09/03 00:28:23;;;;;;;4.47;1.15;;;17.70;68.90;;;;;;5105239;27;35409;-59
2022/09/03 00:30:56;;;;;;;3.13;0.80;;;17.70;69.00;;;;;;5105069;27;38723;-59
2022/09/03 00:33:31;;;;;;;5.13;0.98;;;17.70;69.20;;;;;;5104845;27;36558;-60
2022/09/03 00:36:10;;;;;;;1.98;0.85;;;17.70;69.30;;;;;;5103620;27;38396;-59
2022/09/03 00:38:38;;;;;;;1.98;0.77;;;17.60;69.40;;;;;;5104280;27;37637;-59
2022/09/03 00:41:13;;;;;;;4.82;1.00;;;17.50;69.50;;;;;;5103079;27;37547;-60
2022/09/03 00:43:58;;;;;;;4.45;1.00;;;17.50;69.70;;;;;;5105524;27;38663;-59
2022/09/03 00:46:32;;;;;;;3.45;0.88;;;17.40;69.90;;;;;;5104972;27;37694;-59
2022/09/03 00:49:20;;;;;;;2.95;1.08;;;17.40;70.00;;;;;;5104403;27;38066;-59
2022/09/03 00:51:54;;;;;;;1.98;0.73;;;17.40;70.10;;;;;;5105859;27;38722;-59
2022/09/03 00:54:31;;;;;;;7.43;1.00;;;17.30;70.30;;;;;;5104958;27;38218;-59
2022/09/03 00:57:10;;;;;;;3.53;0.82;;;17.30;71.00;;;;;;5105057;27;37250;-59
2022/09/03 00:59:46;;;;;;;4.20;0.80;;;17.30;70.70;;;;;;5105461;27;36549;-59
2022/09/03 01:02:21;;;;;;;7.70;1.00;;;17.20;70.60;;;;;;5104554;27;20158;-60
2022/09/03 01:05:02;;;;;;;5.47;1.08;;;17.20;70.70;;;;;;5105211;27;38626;-60
2022/09/03 01:07:41;;;;;;;2.47;0.75;;;17.20;70.80;;;;;;5104207;27;37384;-61
2022/09/03 01:10:18;;;;;;;21.95;2.05;;;17.20;71.00;;;;;;5104581;27;36517;-60
2022/09/03 01:12:53;;;;;;;7.25;1.23;;;17.10;71.10;;;;;;5105115;27;37587;-59
2022/09/03 01:15:28;;;;;;;3.22;0.98;;;17.10;71.20;;;;;;5106019;27;38225;-60
2022/09/03 01:18:07;;;;;;;5.43;1.55;;;17.10;71.40;;;;;;5104248;27;37926;-59
2022/09/03 01:20:45;;;;;;;5.63;1.60;;;17.00;71.50;;;;;;5104644;27;37683;-59
2022/09/03 01:23:36;;;;;;;5.13;2.15;;;17.00;71.70;;;;;;5104761;27;37468;-59
2022/09/03 01:26:24;;;;;;;7.20;2.58;;;17.00;71.70;;;;;;5104247;27;38055;-59
2022/09/03 01:29:04;;;;;;;10.07;3.45;;;17.00;71.90;;;;;;5102710;27;38241;-59
2022/09/03 01:31:39;;;;;;;11.02;3.47;;;17.00;71.90;;;;;;5104101;27;35358;-59
2022/09/03 01:34:15;;;;;;;7.47;3.03;;;16.90;72.00;;;;;;5102898;27;36393;-60
2022/09/03 01:36:51;;;;;;;8.95;3.08;;;17.00;72.20;;;;;;5104846;27;37809;-60
2022/09/03 01:39:29;;;;;;;6.75;2.65;;;16.90;72.20;;;;;;5100569;27;36182;-59
2022/09/03 01:42:15;;;;;;;6.53;2.63;;;16.90;72.30;;;;;;5101947;27;36791;-59
2022/09/03 01:45:13;;;;;;;6.45;2.42;;;16.90;72.40;;;;;;5102608;27;36476;-60
2022/09/03 01:47:50;;;;;;;4.88;1.70;;;16.80;72.70;;;;;;5100730;27;38072;-60
2022/09/03 01:50:27;;;;;;;4.28;1.20;;;16.80;72.60;;;;;;5100765;27;40915;-60
2022/09/03 01:53:00;;;;;;;4.00;0.93;;;16.80;72.60;;;;;;5101747;27;36471;-60
2022/09/03 01:55:33;;;;;;;3.17;1.00;;;16.80;72.50;;;;;;5102604;27;37705;-60
2022/09/03 01:58:05;;;;;;;6.47;1.10;;;16.80;72.50;;;;;;5101073;27;38915;-59
2022/09/03 02:00:38;;;;;;;2.60;1.00;;;16.80;72.50;;;;;;5100795;27;37433;-60
2022/09/03 02:03:09;;;;;;;3.67;0.73;;;16.80;72.50;;;;;;5101293;27;35172;-60
2022/09/03 02:05:37;;;;;;;2.72;0.68;;;16.80;72.70;;;;;;5101620;27;37499;-60
2022/09/03 02:08:07;;;;;;;4.13;0.90;;;16.80;72.70;;;;;;5100806;27;37199;-60
2022/09/03 02:10:40;;;;;;;3.83;0.70;;;16.90;72.80;;;;;;5103544;27;37333;-59
2022/09/03 02:13:10;;;;;;;3.40;1.00;;;16.80;72.70;;;;;;5103728;27;36716;-60
2022/09/03 02:15:41;;;;;;;4.18;0.88;;;16.80;72.80;;;;;;5102895;27;36354;-59
2022/09/03 02:18:14;;;;;;;3.63;0.93;;;16.80;72.70;;;;;;5102613;27;36568;-60
2022/09/03 02:20:42;;;;;;;2.10;0.90;;;16.80;72.70;;;;;;5103413;27;37836;-60
2022/09/03 02:23:09;;;;;;;6.97;0.80;;;16.90;72.60;;;;;;5103545;27;38146;-59
2022/09/03 02:25:39;;;;;;;3.08;0.95;;;16.80;72.70;;;;;;5104595;27;37793;-60
2022/09/03 02:28:08;;;;;;;1.88;0.73;;;16.80;72.70;;;;;;5102925;27;37609;-60
2022/09/03 02:30:37;;;;;;;3.20;0.70;;;16.80;72.70;;;;;;5103424;27;37759;-60
2022/09/03 02:33:04;;;;;;;5.20;1.00;;;16.80;72.80;;;;;;5102850;27;36725;-59
2022/09/03 02:35:32;;;;;;;1.52;0.70;;;16.80;72.90;;;;;;5103699;27;39487;-59
2022/09/03 02:38:10;;;;;;;2.70;0.82;;;16.80;72.90;;;;;;5102311;27;38125;-59
2022/09/03 02:40:38;;;;;;;2.45;0.82;;;16.80;73.00;;;;;;5103183;27;37603;-59
2022/09/03 02:43:08;;;;;;;4.07;0.82;;;16.80;72.90;;;;;;5103303;27;37305;-59
2022/09/03 02:45:40;;;;;;;4.35;0.90;;;16.70;72.90;;;;;;5103069;27;39321;-59
2022/09/03 02:48:09;;;;;;;4.93;1.23;;;16.70;73.00;;;;;;5102784;27;37246;-60
2022/09/03 02:50:41;;;;;;;3.08;0.85;;;16.60;73.20;;;;;;5103265;27;38876;-59
2022/09/03 02:53:08;;;;;;;1.73;0.70;;;16.60;73.50;;;;;;5102137;27;36702;-59
2022/09/03 02:55:36;;;;;;;1.80;0.70;;;16.60;73.80;;;;;;5103703;27;38156;-59
2022/09/03 02:58:04;;;;;;;2.38;0.73;;;16.50;73.90;;;;;;5103619;27;38220;-59
2022/09/03 03:00:32;;;;;;;3.22;0.77;;;16.50;74.20;;;;;;5104633;27;37774;-59
2022/09/03 03:03:01;;;;;;;3.47;0.98;;;16.50;74.30;;;;;;5106439;27;35535;-60
2022/09/03 03:05:36;;;;;;;6.15;0.80;;;16.50;74.50;;;;;;5107310;27;37438;-59
2022/09/03 03:08:03;;;;;;;2.65;0.70;;;16.50;74.70;;;;;;5106202;27;37934;-59
2022/09/03 03:10:30;;;;;;;6.70;1.30;;;16.50;75.50;;;;;;5106936;27;37303;-60
2022/09/03 03:12:58;;;;;;;1.90;1.10;;;16.40;75.00;;;;;;5106885;27;37972;-59
2022/09/03 03:15:26;;;;;;;4.95;0.80;;;16.40;75.20;;;;;;5103544;27;38416;-59
2022/09/03 03:17:56;;;;;;;1.85;0.77;;;16.40;75.40;;;;;;5105743;27;37766;-59
2022/09/03 03:20:24;;;;;;;3.03;0.95;;;16.40;75.70;;;;;;5106022;27;37129;-59
2022/09/03 03:22:52;;;;;;;2.97;0.80;;;16.40;75.90;;;;;;5106202;27;38530;-59
2022/09/03 03:25:19;;;;;;;2.08;0.80;;;16.40;76.10;;;;;;5105492;27;38752;-60
2022/09/03 03:27:47;;;;;;;2.78;1.05;;;16.30;76.10;;;;;;5106228;27;39879;-59
2022/09/03 03:30:14;;;;;;;3.80;0.77;;;16.30;76.40;;;;;;5106687;27;37231;-59
2022/09/03 03:32:41;;;;;;;2.92;0.88;;;16.30;76.60;;;;;;5106672;27;35385;-59
2022/09/03 03:35:10;;;;;;;4.00;0.90;;;16.30;76.80;;;;;;5105583;27;37654;-59
2022/09/03 03:37:39;;;;;;;2.88;0.88;;;16.30;77.10;;;;;;5106907;27;39211;-59
2022/09/03 03:40:07;;;;;;;3.85;0.80;;;16.30;77.20;;;;;;5105847;27;36354;-59
2022/09/03 03:42:35;;;;;;;2.17;0.80;;;16.30;77.30;;;;;;5105894;27;37929;-59
2022/09/03 03:45:02;;;;;;;7.65;1.70;;;16.30;77.30;;;;;;5103945;27;38039;-59
2022/09/03 03:47:30;;;;;;;7.18;1.02;;;16.40;77.50;;;;;;5103566;27;38884;-59
2022/09/03 03:49:57;;;;;;;3.53;1.08;;;16.30;77.40;;;;;;5105787;27;36052;-59
2022/09/03 03:52:25;;;;;;;3.03;1.00;;;16.40;77.60;;;;;;5104766;27;38699;-59
2022/09/03 03:54:55;;;;;;;5.40;0.95;;;16.40;78.00;;;;;;5104591;27;37360;-60
2022/09/03 03:57:22;;;;;;;4.47;0.90;;;16.40;78.20;;;;;;5105953;27;37741;-59
2022/09/03 03:59:50;;;;;;;2.22;0.98;;;16.40;78.10;;;;;;5106553;27;37232;-60
2022/09/03 04:02:18;;;;;;;4.35;1.10;;;16.40;77.90;;;;;;5106318;27;36707;-59
2022/09/03 04:04:45;;;;;;;3.83;0.88;;;16.40;78.10;;;;;;5104809;27;39231;-59
2022/09/03 04:07:12;;;;;;;4.25;0.80;;;16.50;77.90;;;;;;5105297;27;38567;-60
2022/09/03 04:09:40;;;;;;;5.07;1.38;;;16.40;77.70;;;;;;5106747;27;37233;-59
2022/09/03 04:12:08;;;;;;;3.25;0.90;;;16.50;77.70;;;;;;5105939;27;36102;-59
2022/09/03 04:14:36;;;;;;;2.53;0.93;;;16.50;77.60;;;;;;5105173;27;38751;-59
2022/09/03 04:17:03;;;;;;;2.20;0.80;;;16.50;77.70;;;;;;5105625;27;38881;-60
2022/09/03 04:19:31;;;;;;;4.05;0.90;;;16.50;77.80;;;;;;5105877;27;37788;-59
2022/09/03 04:21:58;;;;;;;2.63;1.20;;;16.50;77.90;;;;;;5105173;27;38120;-59
2022/09/03 04:24:26;;;;;;;3.38;1.40;;;16.50;78.00;;;;;;5105507;27;38392;-60
2022/09/03 04:26:53;;;;;;;3.60;0.98;;;16.50;78.00;;;;;;5104699;27;38365;-59
2022/09/03 04:29:22;;;;;;;2.72;0.93;;;16.50;78.00;;;;;;5105360;27;38367;-59
2022/09/03 04:34:34;;;;;;;2.20;0.90;;;16.50;77.90;;;;;;5105287;27;38996;-59
2022/09/03 04:37:01;;;;;;;4.60;1.05;;;16.50;78.00;;;;;;5102633;27;36604;-60
2022/09/03 04:39:28;;;;;;;4.63;1.00;;;16.50;78.10;;;;;;5103695;27;37388;-60
2022/09/03 04:41:56;;;;;;;2.13;0.70;;;16.50;77.90;;;;;;5104743;27;35288;-59
2022/09/03 04:44:24;;;;;;;2.85;0.93;;;16.50;78.10;;;;;;5104862;27;38699;-59
2022/09/03 04:46:52;;;;;;;2.13;0.88;;;16.50;78.10;;;;;;5105800;27;38352;-59
2022/09/03 04:49:19;;;;;;;3.85;0.98;;;16.40;78.20;;;;;;5105523;27;37869;-60
2022/09/03 04:51:46;;;;;;;4.90;1.35;;;16.40;78.20;;;;;;5106315;27;36562;-59
2022/09/03 04:54:14;;;;;;;4.75;1.35;;;16.40;78.10;;;;;;5103913;27;37205;-60
2022/09/03 04:56:41;;;;;;;3.22;1.00;;;16.40;78.20;;;;;;5104709;27;39593;-60
2022/09/03 04:59:09;;;;;;;1.92;0.90;;;16.40;78.40;;;;;;5104531;27;36338;-59
2022/09/03 05:01:40;;;;;;;3.85;1.00;;;16.40;78.50;;;;;;5102969;27;36895;-59
2022/09/03 05:04:08;;;;;;;3.70;1.20;;;16.30;78.90;;;;;;5101770;27;37915;-59
2022/09/03 05:06:36;;;;;;;3.15;0.85;;;16.40;79.10;;;;;;5103899;27;38588;-59
2022/09/03 05:09:05;;;;;;;3.85;1.98;;;16.30;79.30;;;;;;5104650;27;37299;-59
2022/09/03 05:11:32;;;;;;;3.92;1.25;;;16.30;79.60;;;;;;5105230;27;36960;-59
2022/09/03 05:14:00;;;;;;;3.67;0.90;;;16.30;79.70;;;;;;5104860;27;36315;-59
2022/09/03 05:16:29;;;;;;;4.80;1.10;;;16.30;79.90;;;;;;5104462;27;37473;-59
2022/09/03 05:18:59;;;;;;;4.63;1.30;;;16.30;80.10;;;;;;5105511;27;37260;-59
2022/09/03 05:21:28;;;;;;;2.33;0.90;;;16.30;80.20;;;;;;5104183;27;37216;-59
2022/09/03 05:23:56;;;;;;;5.30;1.20;;;16.30;80.40;;;;;;5105381;27;37513;-59
2022/09/03 05:26:25;;;;;;;3.13;0.93;;;16.30;80.60;;;;;;5106909;27;38606;-59
2022/09/03 05:28:55;;;;;;;30.15;2.90;;;16.30;80.50;;;;;;5105459;27;38382;-59
2022/09/03 05:31:25;;;;;;;11.75;1.70;;;16.50;80.40;;;;;;5105763;27;36396;-59
2022/09/03 05:33:54;;;;;;;3.33;1.13;;;16.60;79.90;;;;;;5105455;27;38412;-59
2022/09/03 05:36:24;;;;;;;3.28;1.40;;;16.80;79.90;;;;;;5106127;27;37922;-59
2022/09/03 05:38:53;;;;;;;2.72;1.10;;;17.00;79.50;;;;;;5105413;27;37708;-59
2022/09/03 05:41:21;;;;;;;3.45;1.25;;;17.30;78.60;;;;;;5104956;27;36646;-60
2022/09/03 05:43:53;;;;;;;2.00;1.00;;;17.60;76.80;;;;;;5105234;27;38378;-60
2022/09/03 05:46:25;;;;;;;4.35;1.42;;;17.90;76.10;;;;;;5106600;27;37822;-60
2022/09/03 05:48:52;;;;;;;2.75;1.00;;;18.10;75.10;;;;;;5105593;27;36679;-60
2022/09/03 05:51:21;;;;;;;2.95;1.08;;;17.90;74.50;;;;;;5105381;27;36516;-59
2022/09/03 05:53:49;;;;;;;3.80;0.98;;;17.80;74.90;;;;;;5105571;27;38545;-59
2022/09/03 05:56:18;;;;;;;3.90;1.58;;;17.60;75.30;;;;;;5106321;27;37635;-59
2022/09/03 05:58:47;;;;;;;2.90;0.88;;;17.50;75.80;;;;;;5106522;27;38106;-59
2022/09/03 06:01:15;;;;;;;3.40;1.20;;;17.40;77.20;;;;;;5106131;27;36706;-59
2022/09/03 06:03:44;;;;;;;2.75;1.25;;;17.30;76.90;;;;;;5105468;27;37613;-59
2022/09/03 06:06:12;;;;;;;3.75;1.17;;;17.20;77.40;;;;;;5104702;27;39470;-59
2022/09/03 06:08:43;;;;;;;2.92;1.10;;;17.10;77.80;;;;;;5103509;27;38690;-60
2022/09/03 06:11:11;;;;;;;4.47;1.30;;;17.00;78.40;;;;;;5104079;27;35479;-60
2022/09/03 06:13:39;;;;;;;3.53;1.20;;;16.90;78.40;;;;;;5105242;27;36455;-59
2022/09/03 06:16:07;;;;;;;2.05;1.10;;;16.80;79.00;;;;;;5104942;27;38926;-59
2022/09/03 06:18:35;;;;;;;4.80;1.40;;;16.80;79.80;;;;;;5105416;27;37365;-59
2022/09/03 06:21:06;;;;;;;4.47;1.23;;;16.80;80.20;;;;;;5105713;27;37404;-60
2022/09/03 06:23:34;;;;;;;4.32;1.30;;;16.90;80.50;;;;;;5104984;27;38515;-59
2022/09/03 06:26:04;;;;;;;3.47;1.30;;;16.90;80.70;;;;;;5106549;27;37583;-59
2022/09/03 06:28:33;;;;;;;5.53;1.38;;;16.90;80.60;;;;;;5106197;27;38707;-60
2022/09/03 06:31:02;;;;;;;5.95;1.15;;;16.90;81.10;;;;;;5105211;27;37327;-59
2022/09/03 06:33:30;;;;;;;7.10;1.30;;;17.00;80.90;;;;;;5103583;27;37727;-59
2022/09/03 06:35:58;;;;;;;5.13;1.20;;;17.00;80.70;;;;;;5103236;27;39622;-59
2022/09/03 06:38:27;;;;;;;3.35;1.27;;;17.00;80.40;;;;;;5104321;27;37214;-60
2022/09/03 06:40:56;;;;;;;5.28;1.27;;;17.10;80.10;;;;;;5103891;27;36627;-60
2022/09/03 06:43:25;;;;;;;6.25;1.20;;;17.10;80.30;;;;;;5104390;27;38798;-60
2022/09/03 06:45:56;;;;;;;3.53;1.20;;;17.20;80.10;;;;;;5102919;27;36494;-60
2022/09/03 06:48:24;;;;;;;7.25;1.38;;;17.20;79.50;;;;;;5106117;27;36279;-59
2022/09/03 06:50:56;;;;;;;3.13;1.13;;;17.20;79.90;;;;;;5105486;27;36737;-60
2022/09/03 06:53:25;;;;;;;5.50;1.55;;;17.20;79.50;;;;;;5105265;27;37740;-60
2022/09/03 06:55:56;;;;;;;5.88;1.33;;;17.30;79.70;;;;;;5103155;27;38817;-61
2022/09/03 06:58:28;;;;;;;3.72;1.20;;;17.30;79.50;;;;;;5105218;27;37450;-59
2022/09/03 07:01:01;;;;;;;5.53;1.40;;;17.30;79.70;;;;;;5104830;27;35411;-60
2022/09/03 07:03:29;;;;;;;4.35;1.50;;;17.40;79.20;;;;;;5105406;27;37524;-59
2022/09/03 07:06:01;;;;;;;15.18;2.38;;;17.40;79.60;;;;;;5102505;27;37552;-59
2022/09/03 07:08:29;;;;;;;5.95;1.20;;;17.40;79.60;;;;;;5104331;27;37595;-59
2022/09/03 07:10:56;;;;;;;6.95;1.25;;;17.50;79.60;;;;;;5098934;27;36971;-60
2022/09/03 07:13:25;;;;;;;18.15;1.50;;;17.50;79.40;;;;;;5097238;27;37122;-60
2022/09/03 07:16:00;;;;;;;3.53;1.30;;;17.50;79.20;;;;;;5097932;27;36643;-59
2022/09/03 07:18:27;;;;;;;3.50;0.88;;;17.60;79.00;;;;;;5099234;27;36190;-59
2022/09/03 07:20:59;;;;;;;3.40;1.20;;;17.60;78.80;;;;;;5097920;27;36843;-60
2022/09/03 07:23:26;;;;;;;4.80;1.48;;;17.60;78.60;;;;;;5099253;27;37701;-59
2022/09/03 07:25:55;;;;;;;5.20;1.17;;;17.60;78.20;;;;;;5097578;27;36969;-60
2022/09/03 07:28:23;;;;;;;5.40;1.05;;;17.70;78.00;;;;;;5099383;27;37629;-60
2022/09/03 07:30:52;;;;;;;8.00;1.60;;;17.70;77.90;;;;;;5098966;27;35494;-60
2022/09/03 07:33:20;;;;;;;3.08;1.13;;;17.70;77.60;;;;;;5098753;27;38185;-60
2022/09/03 07:35:48;;;;;;;4.10;1.27;;;17.80;78.10;;;;;;5098877;27;35902;-60
2022/09/03 07:38:17;;;;;;;6.55;1.65;;;17.80;78.20;;;;;;5099389;27;39457;-60
2022/09/03 07:40:47;;;;;;;3.67;1.15;;;17.80;77.70;;;;;;5098446;27;37286;-60
2022/09/03 07:43:14;;;;;;;3.00;1.00;;;17.90;77.80;;;;;;5099607;27;39205;-59
2022/09/03 07:45:44;;;;;;;4.18;1.08;;;17.90;77.80;;;;;;5101105;27;36763;-60
2022/09/03 07:48:13;;;;;;;4.40;1.20;;;18.00;77.70;;;;;;5102539;27;37457;-60
2022/09/03 07:50:40;;;;;;;3.67;1.25;;;18.00;77.30;;;;;;5102749;27;37541;-60
2022/09/03 07:53:08;;;;;;;3.50;1.20;;;18.00;77.30;;;;;;5102507;27;38376;-60
2022/09/03 07:55:39;;;;;;;4.20;1.02;;;18.10;77.10;;;;;;5101863;27;39348;-60
2022/09/03 07:58:06;;;;;;;4.28;1.27;;;18.10;77.10;;;;;;5102716;27;37257;-60
2022/09/03 08:00:34;;;;;;;3.10;1.27;;;18.20;76.90;;;;;;5102480;27;36560;-60
2022/09/03 08:03:05;;;;;;;2.85;1.23;;;18.20;77.00;;;;;;5100675;27;39734;-60
2022/09/03 08:05:35;;;;;;;14.20;1.65;;;18.30;77.00;;;;;;5101343;27;37706;-60
2022/09/03 08:08:03;;;;;;;3.55;1.20;;;18.40;76.90;;;;;;5100080;27;38037;-60
2022/09/03 08:10:31;;;;;;;24.35;2.85;;;18.40;76.80;;;;;;5100205;27;36574;-59
2022/09/03 08:13:04;;;;;;;5.18;1.50;;;18.50;76.70;;;;;;5099872;27;39958;-60
2022/09/03 08:15:31;;;;;;;6.38;1.17;;;18.60;77.00;;;;;;5100120;27;38699;-60
2022/09/03 08:17:59;;;;;;;6.03;1.20;;;18.60;77.00;;;;;;5100259;27;37728;-59
2022/09/03 08:20:26;;;;;;;5.95;1.10;;;18.70;76.30;;;;;;5101105;27;37868;-60
2022/09/03 08:23:02;;;;;;;2.97;1.05;;;18.90;76.00;;;;;;5102094;27;37588;-59
2022/09/03 08:25:30;;;;;;;3.58;1.20;;;19.10;75.60;;;;;;5099393;27;38705;-60
2022/09/03 08:28:02;;;;;;;5.68;1.00;;;19.20;74.80;;;;;;5101940;27;37803;-60
2022/09/03 08:30:29;;;;;;;4.63;1.05;;;19.30;74.00;;;;;;5101366;27;36266;-59
2022/09/03 08:32:56;;;;;;;4.53;1.23;;;19.30;74.30;;;;;;5100826;27;38805;-59
2022/09/03 08:35:24;;;;;;;3.60;1.30;;;19.30;74.20;;;;;;5099472;27;36529;-59
2022/09/03 08:37:52;;;;;;;4.20;1.10;;;19.40;74.30;;;;;;5100497;27;39283;-60
2022/09/03 08:40:23;;;;;;;4.35;1.08;;;19.50;74.20;;;;;;5099772;27;37917;-60
2022/09/03 08:43:05;;;;;;;4.50;1.00;;;19.60;74.30;;;;;;5097518;27;39213;-60
2022/09/03 08:45:37;;;;;;;6.57;1.63;;;19.70;73.50;;;;;;5099696;27;37622;-60
2022/09/03 08:48:08;;;;;;;6.07;1.10;;;19.70;72.30;;;;;;5100679;27;36015;-60
2022/09/03 08:50:40;;;;;;;4.75;1.05;;;19.80;72.00;;;;;;5100800;27;37311;-60
2022/09/03 08:53:11;;;;;;;4.90;1.15;;;19.80;71.40;;;;;;5100115;27;36393;-60
2022/09/03 08:55:46;;;;;;;3.42;1.02;;;19.90;71.40;;;;;;5097383;27;41967;-60
2022/09/03 08:58:15;;;;;;;1.85;0.85;;;20.00;71.60;;;;;;5100165;27;36276;-60
2022/09/03 09:00:49;;;;;;;4.03;1.20;;;20.10;72.00;;;;;;5100677;27;36574;-59
2022/09/03 09:03:43;;;;;;;2.42;0.90;;;20.20;71.40;;;;;;5101078;27;36533;-59
2022/09/03 09:06:21;;;;;;;2.08;0.93;;;20.30;71.60;;;;;;5084548;27;38498;-60
2022/09/03 09:09:09;;;;;;;7.88;1.10;;;20.40;69.90;;;;;;5101007;27;38053;-60
2022/09/03 09:11:50;;;;;;;3.10;1.15;;;20.50;69.50;;;;;;5101494;27;35551;-60
2022/09/03 09:14:24;;;;;;;2.78;1.00;;;20.50;69.00;;;;;;5101861;27;37674;-60
2022/09/03 09:17:04;;;;;;;4.07;1.48;;;20.60;69.50;;;;;;5101755;27;38309;-60
2022/09/03 09:19:47;;;;;;;5.00;1.15;;;20.70;69.10;;;;;;5102472;27;37768;-60
2022/09/03 09:22:24;;;;;;;2.80;1.17;;;20.70;68.60;;;;;;5099723;27;37429;-60
2022/09/03 09:24:54;;;;;;;2.95;1.15;;;20.90;68.50;;;;;;5099453;27;37923;-59
2022/09/03 09:27:24;;;;;;;5.90;1.20;;;20.90;68.60;;;;;;5099125;27;38208;-59
2022/09/03 09:29:54;;;;;;;5.97;1.15;;;21.00;68.80;;;;;;5099848;27;38213;-60
2022/09/03 09:32:22;;;;;;;5.30;1.05;;;21.10;67.90;;;;;;5099415;27;36851;-60
2022/09/03 09:34:50;;;;;;;3.97;0.90;;;21.20;67.00;;;;;;5099570;27;38906;-60
2022/09/03 09:37:18;;;;;;;3.03;1.15;;;21.30;66.80;;;;;;5100277;27;37892;-60
2022/09/03 09:39:56;;;;;;;4.35;1.17;;;21.30;66.00;;;;;;5099287;27;37338;-59
2022/09/03 09:42:25;;;;;;;2.40;0.90;;;21.40;66.00;;;;;;5100187;27;36824;-59
2022/09/03 09:44:52;;;;;;;5.28;1.10;;;21.50;65.50;;;;;;5100750;27;41453;-60
2022/09/03 09:47:25;;;;;;;3.85;1.17;;;21.60;64.70;;;;;;5099899;27;38507;-60
2022/09/03 09:49:55;;;;;;;4.40;1.10;;;21.60;65.60;;;;;;5101682;27;38260;-60
2022/09/03 09:52:24;;;;;;;2.88;1.00;;;21.60;64.00;;;;;;5100984;27;35395;-60
2022/09/03 09:54:54;;;;;;;5.20;1.33;;;21.70;64.20;;;;;;5101274;27;37342;-60
2022/09/03 09:57:23;;;;;;;4.68;0.93;;;21.70;64.10;;;;;;5103221;27;38251;-60
2022/09/03 10:00:05;;;;;;;4.28;1.10;;;21.80;63.60;;;;;;5102658;27;37114;-60
2022/09/03 10:02:36;;;;;;;4.68;0.90;;;22.00;62.80;;;;;;5102889;27;37042;-60
2022/09/03 10:05:14;;;;;;;3.63;1.00;;;22.00;62.30;;;;;;5101393;27;37316;-61
2022/09/03 10:07:42;;;;;;;4.13;1.27;;;22.10;62.00;;;;;;5100438;27;37689;-60
2022/09/03 10:10:18;;;;;;;6.82;1.30;;;22.20;61.90;;;;;;5099239;27;37455;-60
2022/09/03 10:12:48;;;;;;;3.75;1.00;;;22.30;61.60;;;;;;5102307;27;36854;-60
2022/09/03 10:15:25;;;;;;;4.05;0.88;;;22.50;61.60;;;;;;5100558;27;39288;-60
2022/09/03 10:18:03;;;;;;;2.55;1.05;;;22.60;61.20;;;;;;5100994;27;36507;-60
2022/09/03 10:20:36;;;;;;;3.05;0.95;;;22.80;62.40;;;;;;5102042;27;36338;-60
2022/09/03 10:23:11;;;;;;;5.53;0.90;;;22.90;60.70;;;;;;5102609;27;36301;-60
2022/09/03 10:25:49;;;;;;;2.28;1.02;;;23.00;59.90;;;;;;5101869;27;37789;-60
2022/09/03 10:28:16;;;;;;;5.65;1.27;;;23.10;59.50;;;;;;5102110;27;39966;-59
2022/09/03 10:31:03;;;;;;;9.18;1.55;;;23.20;58.30;;;;;;5101269;27;37217;-60
2022/09/03 10:33:35;;;;;;;6.65;1.13;;;23.20;58.30;;;;;;5102818;27;36705;-60
2022/09/03 10:36:12;;;;;;;7.90;1.10;;;23.30;57.60;;;;;;5100896;27;36619;-60
2022/09/03 10:38:42;;;;;;;4.60;1.10;;;23.40;56.30;;;;;;5102027;27;38392;-60
2022/09/03 10:41:23;;;;;;;7.32;1.20;;;23.40;56.50;;;;;;5101884;27;38236;-59
2022/09/03 10:44:12;;;;;;;5.50;1.10;;;23.60;56.70;;;;;;5102496;27;36354;-59
2022/09/03 10:46:49;;;;;;;10.35;1.50;;;23.60;56.00;;;;;;5102062;27;38283;-60
2022/09/03 10:49:31;;;;;;;3.70;0.90;;;23.70;55.40;;;;;;5099216;27;38324;-60
2022/09/03 10:52:07;;;;;;;4.80;1.40;;;23.80;55.50;;;;;;5099598;27;37048;-60
2022/09/03 10:54:55;;;;;;;4.10;0.88;;;23.90;55.20;;;;;;5099822;27;36832;-60
2022/09/03 10:57:32;;;;;;;5.07;1.10;;;24.00;54.60;;;;;;5098929;27;36084;-60
2022/09/03 11:00:07;;;;;;;4.65;1.77;;;24.20;54.00;;;;;;5099178;27;36390;-60
2022/09/03 11:02:51;;;;;;;5.63;1.00;;;24.20;53.40;;;;;;5100283;27;36207;-60
2022/09/03 11:05:23;;;;;;;6.82;1.10;;;24.30;52.80;;;;;;5098963;27;36840;-60
2022/09/03 11:07:57;;;;;;;9.10;1.20;;;24.40;52.50;;;;;;5100790;27;37928;-60
2022/09/03 11:10:28;;;;;;;3.22;0.85;;;24.40;52.30;;;;;;5099523;27;39394;-60
2022/09/03 11:13:04;;;;;;;3.97;0.98;;;24.40;51.60;;;;;;5100085;27;36394;-60
2022/09/03 11:15:35;;;;;;;2.95;0.77;;;24.50;52.00;;;;;;5098873;27;37622;-60
2022/09/03 11:18:11;;;;;;;8.60;0.98;;;24.60;52.10;;;;;;5099265;27;38304;-60
2022/09/03 11:20:41;;;;;;;6.03;1.05;;;24.70;51.60;;;;;;5104216;27;37168;-60
2022/09/03 11:23:13;;;;;;;7.35;1.33;;;24.70;50.50;;;;;;5105626;27;38041;-60
2022/09/03 11:25:46;;;;;;;7.35;0.95;;;24.70;49.60;;;;;;5103201;27;37608;-60
2022/09/03 11:28:20;;;;;;;;;;;24.80;48.50;;;;;;5106088;27;36526;-60
2022/09/03 11:30:56;;;;;;;3.72;0.88;;;24.70;48.10;;;;;;5105289;27;38082;-61
2022/09/03 11:33:27;;;;;;;4.47;0.85;;;24.80;49.70;;;;;;5103388;27;38296;-61
2022/09/03 11:36:00;;;;;;;5.05;1.13;;;24.80;48.80;;;;;;5104541;27;35207;-60
2022/09/03 11:38:30;;;;;;;2.75;0.80;;;24.90;48.90;;;;;;5105274;27;39676;-60
2022/09/03 11:41:01;;;;;;;3.05;0.70;;;24.90;49.10;;;;;;5104140;27;38651;-60
2022/09/03 11:43:30;;;;;;;4.18;0.85;;;25.00;48.80;;;;;;5102639;27;37741;-60
2022/09/03 11:46:11;;;;;;;4.57;0.93;;;25.00;48.00;;;;;;5103497;27;36496;-59
2022/09/03 11:48:43;;;;;;;7.55;1.05;;;25.00;47.40;;;;;;5102463;27;37757;-60
2022/09/03 11:51:31;;;;;;;3.38;0.70;;;25.00;47.20;;;;;;5104307;27;37898;-60
2022/09/03 11:54:00;;;;;;;2.33;0.90;;;24.90;46.80;;;;;;5103964;27;37447;-59
2022/09/03 11:56:29;;;;;;;3.55;0.90;;;25.00;47.00;;;;;;5104022;27;36412;-59
2022/09/03 11:59:17;;;;;;;3.80;0.90;;;24.90;46.70;;;;;;5104866;27;36278;-60
2022/09/03 12:01:52;;;;;;;2.83;0.80;;;25.00;45.50;;;;;;5104701;27;37986;-60
2022/09/03 12:04:26;;;;;;;5.38;2.00;;;25.00;46.00;;;;;;5103873;27;40004;-61
2022/09/03 12:07:13;;;;;;;4.35;1.17;;;25.00;45.60;;;;;;5104716;27;37074;-60
2022/09/03 12:10:07;;;;;;;3.22;0.90;;;25.00;45.20;;;;;;5105144;27;36258;-60
2022/09/03 12:12:48;;;;;;;2.67;0.60;;;25.00;44.90;;;;;;5105275;27;37987;-60
2022/09/03 12:15:32;;;;;;;2.78;0.82;;;25.00;45.30;;;;;;5104814;27;37828;-60
2022/09/03 12:18:19;;;;;;;1.75;0.70;;;24.90;44.90;;;;;;5104374;27;36305;-59
2022/09/03 12:21:00;;;;;;;4.57;1.00;;;24.80;44.90;;;;;;5103887;27;38409;-60
2022/09/03 12:23:30;;;;;;;4.25;1.10;;;24.70;45.10;;;;;;5100656;27;38155;-59
2022/09/03 12:26:00;;;;;;;3.13;0.80;;;24.70;44.40;;;;;;5103284;27;36221;-60
2022/09/03 12:28:32;;;;;;;4.47;0.80;;;24.60;44.80;;;;;;5105181;27;39627;-60
2022/09/03 12:31:20;;;;;;;5.20;0.80;;;24.60;45.10;;;;;;5102009;27;37117;-60
2022/09/03 12:33:50;;;;;;;23.08;2.08;;;24.50;44.50;;;;;;5102882;27;36506;-60
2022/09/03 12:36:19;;;;;;;4.38;0.98;;;24.50;44.60;;;;;;5103908;27;38666;-60
2022/09/03 12:38:46;;;;;;;7.68;1.10;;;24.40;44.50;;;;;;5103569;27;36869;-60
2022/09/03 12:41:21;;;;;;;4.00;0.85;;;24.30;45.10;;;;;;5102717;27;37715;-60
2022/09/03 12:43:52;;;;;;;13.50;1.40;;;24.40;44.90;;;;;;5102666;27;39175;-59
2022/09/03 12:46:24;;;;;;;3.63;0.80;;;24.40;44.90;;;;;;5102282;27;37408;-60
2022/09/03 12:48:56;;;;;;;2.83;0.90;;;24.30;45.20;;;;;;5104340;27;37662;-60
2022/09/03 12:51:25;;;;;;;1.60;0.80;;;24.30;45.10;;;;;;5103164;27;38901;-59
2022/09/03 12:53:53;;;;;;;2.30;0.80;;;24.30;45.60;;;;;;5104222;27;38558;-60
2022/09/03 12:56:22;;;;;;;2.35;0.70;;;24.20;44.90;;;;;;5102178;27;38769;-60
2022/09/03 12:58:57;;;;;;;7.38;0.70;;;24.20;44.80;;;;;;5104617;27;36695;-60
2022/09/03 13:01:30;;;;;;;4.70;0.93;;;24.10;45.90;;;;;;5103144;27;37254;-60
2022/09/03 13:04:06;;;;;;;4.28;1.02;;;24.10;45.40;;;;;;5102776;27;38466;-60
2022/09/03 13:06:48;;;;;;;10.18;1.10;;;24.10;45.00;;;;;;5103954;27;37419;-59
2022/09/03 13:09:19;;;;;;;3.40;0.75;;;24.10;44.90;;;;;;5103520;27;37770;-60
2022/09/03 13:11:47;;;;;;;2.13;0.75;;;24.00;45.00;;;;;;5102466;27;38254;-60